Time;durP1;ratioP1;P1;durP2;ratioP2;P2;SDS_P1;SDS_P2;PMS_P1;PMS_P2;Temp;Humidity;BMP_temperature;BMP_pressure;BME280_temperature;BME280_humidity;BME280_pressure;Samples;Min_cycle;Max_cycle;Signal;HPM_P1;HPM_P2
2021/03/27 00:02:28;;;;;;;10.17;8.00;;;;;;;13.89;41.28;97803.66;8319122;28;20224;-64
2021/03/27 00:06:37;;;;;;;11.43;7.60;;;;;;;13.89;41.19;97793.25;8333194;28;20181;-64
2021/03/27 00:10:43;;;;;;;13.03;7.53;;;;;;;13.84;41.36;97795.28;8332692;28;20235;-64
2021/03/27 00:14:50;;;;;;;11.17;7.20;;;;;;;13.87;41.28;97793.34;8332990;28;20196;-64
2021/03/27 00:19:03;;;;;;;16.23;8.03;;;;;;;13.74;41.50;97789.81;8319440;28;20228;-64
2021/03/27 00:23:08;;;;;;;11.47;7.73;;;;;;;13.81;41.48;97800.69;8300015;28;20213;-64
2021/03/27 00:27:14;;;;;;;11.47;8.03;;;;;;;13.82;41.50;97792.81;8299851;28;20259;-64
2021/03/27 00:31:19;;;;;;;10.20;7.67;;;;;;;13.75;42.00;97793.28;8299685;28;20488;-65
2021/03/27 00:35:28;;;;;;;10.27;8.13;;;;;;;13.69;42.34;97794.47;8299212;28;20306;-64
2021/03/27 00:39:33;;;;;;;10.13;7.70;;;;;;;13.69;41.84;97789.28;8298910;28;20240;-64
2021/03/27 00:43:39;;;;;;;14.77;8.47;;;;;;;13.74;41.88;97791.59;8298916;28;20256;-64
2021/03/27 00:47:43;;;;;;;11.10;7.53;;;;;;;13.72;41.86;97798.66;8298711;28;20189;-64
2021/03/27 00:51:49;;;;;;;14.80;8.40;;;;;;;13.69;42.14;97795.31;8299259;28;20216;-64
2021/03/27 00:55:59;;;;;;;11.47;7.90;;;;;;;13.61;42.67;97801.88;8299593;28;20272;-65
2021/03/27 01:00:07;;;;;;;11.53;8.13;;;;;;;13.57;42.49;97793.41;8298595;28;20265;-64
2021/03/27 01:04:12;;;;;;;8.70;7.53;;;;;;;13.52;42.55;97786.81;8324848;28;20216;-63
2021/03/27 01:08:17;;;;;;;10.77;8.33;;;;;;;13.48;42.86;97783.56;8331136;28;20201;-65
2021/03/27 01:12:23;;;;;;;10.60;8.03;;;;;;;13.42;43.02;97770.91;8330242;28;20208;-64
2021/03/27 01:16:28;;;;;;;12.97;8.37;;;;;;;13.41;42.68;97779.66;8318752;28;20204;-65
2021/03/27 01:20:34;;;;;;;10.20;7.43;;;;;;;13.41;42.88;97777.88;8314452;28;20196;-65
2021/03/27 01:24:37;;;;;;;16.70;8.10;;;;;;;13.37;42.94;97781.59;8323219;28;20639;-64
2021/03/27 01:28:41;;;;;;;13.43;7.60;;;;;;;13.35;43.12;97791.25;8301650;28;20234;-63
2021/03/27 01:32:47;;;;;;;14.73;8.03;;;;;;;13.37;42.96;97786.78;8298757;28;20551;-63
2021/03/27 01:36:51;;;;;;;13.50;7.63;;;;;;;13.28;43.13;97790.72;8298346;28;20238;-64
2021/03/27 01:41:02;;;;;;;9.23;7.70;;;;;;;13.34;42.98;97789.56;8298831;28;20217;-64
2021/03/27 01:45:49;;;;;;;12.87;7.43;;;;;;;13.32;42.92;97775.00;8303367;28;20550;-64
2021/03/27 01:50:21;;;;;;;11.93;7.07;;;;;;;13.30;43.06;97783.69;8304749;28;20593;-64
2021/03/27 01:54:26;;;;;;;9.13;6.77;;;;;;;13.30;43.10;97778.50;8305925;28;20204;-64
2021/03/27 01:58:32;;;;;;;9.60;7.30;;;;;;;13.10;43.45;97771.84;8304476;28;20528;-64
2021/03/27 02:02:36;;;;;;;11.63;7.53;;;;;;;13.18;43.59;97779.19;8336024;28;20220;-63
2021/03/27 02:06:41;;;;;;;11.90;7.37;;;;;;;13.18;43.61;97773.16;8337192;28;20560;-64
2021/03/27 02:10:45;;;;;;;11.33;6.70;;;;;;;13.21;43.71;97757.38;8337259;28;20200;-64
2021/03/27 02:14:50;;;;;;;12.70;7.10;;;;;;;13.22;43.53;97756.47;8336599;28;20196;-63
2021/03/27 02:19:02;;;;;;;8.67;6.90;;;;;;;13.05;43.94;97747.88;8336375;28;20200;-64
2021/03/27 02:23:13;;;;;;;8.97;7.07;;;;;;;13.07;44.06;97742.59;8336175;28;20670;-64
2021/03/27 02:27:18;;;;;;;13.00;7.30;;;;;;;13.11;44.03;97742.31;8335880;28;20228;-63
2021/03/27 02:31:24;;;;;;;8.13;6.83;;;;;;;13.10;44.04;97750.22;8335696;28;20189;-64
2021/03/27 02:35:42;;;;;;;12.73;6.77;;;;;;;13.19;43.94;97759.22;8336075;28;20203;-63
2021/03/27 02:39:46;;;;;;;12.60;7.77;;;;;;;13.14;44.02;97774.28;8335712;28;20669;-64
2021/03/27 02:43:54;;;;;;;13.87;6.87;;;;;;;13.17;43.88;97766.28;8335563;28;20554;-63
2021/03/27 02:48:07;;;;;;;10.57;7.10;;;;;;;13.20;43.94;97764.34;8335687;28;20225;-64
2021/03/27 02:52:24;;;;;;;11.60;7.00;;;;;;;13.17;44.32;97761.91;8335636;28;20228;-63
2021/03/27 02:56:29;;;;;;;13.23;6.67;;;;;;;13.18;44.26;97748.00;8334902;28;20185;-64
2021/03/27 03:00:40;;;;;;;8.00;6.50;;;;;;;13.22;44.29;97749.47;8334718;28;20193;-64
2021/03/27 03:04:48;;;;;;;7.63;6.47;;;;;;;13.16;44.58;97744.66;8334851;28;20632;-63
2021/03/27 03:08:57;;;;;;;10.50;6.87;;;;;;;13.14;44.89;97750.88;8335263;28;20189;-63
2021/03/27 03:13:06;;;;;;;10.10;6.77;;;;;;;13.00;45.68;97744.69;8335312;28;20200;-64
2021/03/27 03:17:16;;;;;;;8.93;6.07;;;;;;;13.04;46.01;97755.75;8334296;28;20196;-64
2021/03/27 03:21:24;;;;;;;9.40;6.67;;;;;;;12.97;46.48;97765.66;8334436;28;20234;-64
2021/03/27 03:25:30;;;;;;;10.97;6.73;;;;;;;12.91;47.05;97758.22;8334170;28;20244;-64
2021/03/27 03:29:47;;;;;;;8.30;6.67;;;;;;;12.93;47.03;97753.78;8335028;28;20327;-64
2021/03/27 03:34:08;;;;;;;7.70;6.13;;;;;;;12.94;47.26;97749.41;8334165;28;20200;-64
2021/03/27 03:38:21;;;;;;;9.03;5.77;;;;;;;12.86;47.73;97763.69;8334156;28;20683;-63
2021/03/27 03:42:59;;;;;;;8.53;6.13;;;;;;;12.95;48.14;97767.53;8334676;28;20486;-64
2021/03/27 03:47:07;;;;;;;7.77;5.60;;;;;;;12.98;48.37;97767.31;8334332;28;20535;-64
2021/03/27 03:51:16;;;;;;;9.47;5.57;;;;;;;12.65;50.10;97770.09;8333974;28;20188;-64
2021/03/27 03:55:30;;;;;;;6.47;5.17;;;;;;;12.79;49.80;97774.50;8333879;28;20193;-64
2021/03/27 03:59:38;;;;;;;7.13;5.30;;;;;;;12.89;49.88;97784.31;8333683;28;20589;-64
2021/03/27 04:03:51;;;;;;;7.00;5.30;;;;;;;12.91;50.34;97795.44;8333699;28;20208;-64
2021/03/27 04:07:58;;;;;;;7.67;5.43;;;;;;;12.82;51.58;97806.34;8332506;28;20559;-64
2021/03/27 04:12:12;;;;;;;7.10;5.93;;;;;;;12.76;52.25;97809.31;8332847;28;20214;-64
2021/03/27 04:16:15;;;;;;;8.63;5.83;;;;;;;12.85;52.62;97805.34;8333266;28;20192;-63
2021/03/27 04:20:21;;;;;;;6.53;5.03;;;;;;;12.73;53.58;97799.06;8332811;28;20192;-64
2021/03/27 04:24:27;;;;;;;5.13;4.60;;;;;;;12.83;53.62;97802.00;8333297;28;20224;-64
2021/03/27 04:28:48;;;;;;;6.70;5.40;;;;;;;12.81;53.48;97807.31;8332934;28;20687;-65
2021/03/27 04:32:55;;;;;;;4.97;4.13;;;;;;;12.88;53.44;97811.19;8332249;28;20189;-66
2021/03/27 04:37:04;;;;;;;6.13;4.30;;;;;;;12.86;53.93;97820.84;8332540;28;20184;-64
2021/03/27 04:41:19;;;;;;;4.93;3.77;;;;;;;12.89;53.67;97832.84;8332582;28;20612;-63
2021/03/27 04:45:26;;;;;;;6.93;5.33;;;;;;;12.88;53.77;97839.78;8331588;28;20212;-63
2021/03/27 04:49:35;;;;;;;7.73;6.47;;;;;;;12.91;53.83;97854.41;8331979;28;20184;-64
2021/03/27 04:53:41;;;;;;;9.47;6.50;;;;;;;12.78;55.67;97887.19;8332429;28;20228;-63
2021/03/27 04:57:49;;;;;;;12.23;7.20;;;;;;;12.36;59.07;97904.16;8331840;28;20185;-63
2021/03/27 05:01:56;;;;;;;7.63;5.87;;;;;;;12.42;60.33;97930.63;8331452;28;20628;-64
2021/03/27 05:06:03;;;;;;;6.40;4.00;;;;;;;12.38;60.30;97936.91;8329312;28;20216;-64
2021/03/27 05:10:10;;;;;;;7.53;5.30;;;;;;;12.25;60.29;97951.44;8328671;28;20185;-64
2021/03/27 05:14:22;;;;;;;3.70;3.03;;;;;;;12.02;60.73;97958.63;8329329;28;20200;-64
2021/03/27 05:18:41;;;;;;;4.97;3.90;;;;;;;11.78;60.32;97962.41;8328910;28;20193;-64
2021/03/27 05:23:07;;;;;;;3.57;2.30;;;;;;;11.79;59.31;97967.53;8306958;28;20228;-64
2021/03/27 05:27:26;;;;;;;3.93;2.30;;;;;;;11.69;57.77;97961.97;8295867;28;20980;-64
2021/03/27 05:31:34;;;;;;;5.20;3.03;;;;;;;11.64;58.40;97969.13;8297118;28;20202;-64
2021/03/27 05:35:41;;;;;;;2.93;2.33;;;;;;;11.71;58.24;97962.72;8298254;28;20190;-64
2021/03/27 05:39:49;;;;;;;1.80;1.70;;;;;;;11.62;58.59;97972.69;8329684;28;20536;-64
2021/03/27 05:44:20;;;;;;;2.30;1.70;;;;;;;11.78;58.05;97965.00;8331326;28;20659;-64
2021/03/27 05:48:40;;;;;;;4.60;2.30;;;;;;;11.68;59.11;97975.81;8329280;28;20582;-64
2021/03/27 05:53:09;;;;;;;6.30;4.43;;;;;;;11.81;58.79;97990.81;8331428;28;20354;-64
2021/03/27 05:57:32;;;;;;;7.47;5.77;;;;;;;11.90;58.31;98006.78;8293131;28;20609;-64
2021/03/27 06:01:42;;;;;;;7.23;5.80;;;;;;;11.82;57.87;98016.69;8303087;28;20195;-64
2021/03/27 06:06:14;;;;;;;7.63;6.77;;;;;;;11.86;58.22;98027.72;8329858;28;20212;-65
2021/03/27 06:10:29;;;;;;;3.07;2.10;;;;;;;11.80;56.74;98026.28;8329912;28;20196;-63
2021/03/27 06:14:54;;;;;;;9.10;7.10;;;;;;;11.96;56.64;98034.19;8323847;28;20189;-65
2021/03/27 06:19:07;;;;;;;4.00;2.73;;;;;;;11.98;57.14;98054.91;8322124;28;20208;-65
2021/03/27 06:23:17;;;;;;;3.57;1.97;;;;;;;11.86;56.67;98051.09;8315042;28;20209;-64
2021/03/27 06:27:46;;;;;;;3.90;2.00;;;;;;;11.71;57.00;98068.25;8313045;28;20274;-64
2021/03/27 06:32:06;;;;;;;3.47;1.83;;;;;;;11.74;55.54;98087.06;8318681;28;20181;-65
2021/03/27 06:36:25;;;;;;;1.50;1.40;;;;;;;11.72;54.85;98101.03;8313807;28;20221;-65
2021/03/27 06:40:35;;;;;;;2.67;1.40;;;;;;;11.47;53.90;98104.78;8332169;28;20213;-64
2021/03/27 06:45:22;;;;;;;2.33;1.50;;;;;;;11.35;53.41;98115.72;8336049;28;20647;-65
2021/03/27 06:49:59;;;;;;;1.40;1.30;;;;;;;11.31;53.42;98138.34;8336241;28;20184;-64
2021/03/27 06:54:45;;;;;;;5.00;1.40;;;;;;;10.87;55.71;98172.22;8310413;28;20227;-65
2021/03/27 06:59:07;;;;;;;1.33;0.63;;;;;;;10.16;54.74;98187.97;8324599;28;20217;-65
2021/03/27 07:03:40;;;;;;;0.97;0.60;;;;;;;10.63;54.31;98189.63;8327677;28;20647;-64
2021/03/27 07:08:06;;;;;;;3.83;0.83;;;;;;;10.61;52.42;98203.53;8324286;28;20597;-65
2021/03/27 07:12:23;;;;;;;3.17;0.70;;;;;;;10.68;51.75;98202.38;8299824;28;20196;-65
2021/03/27 07:16:35;;;;;;;0.97;0.57;;;;;;;10.89;51.93;98216.19;8303273;28;20197;-65
2021/03/27 07:20:53;;;;;;;1.20;0.73;;;;;;;11.54;49.77;98222.91;8305241;28;20251;-66
2021/03/27 07:25:26;;;;;;;0.77;0.60;;;;;;;11.92;46.85;98245.47;8335721;28;20208;-65
2021/03/27 07:29:51;;;;;;;1.00;0.40;;;;;;;11.56;47.60;98248.78;8335067;28;20232;-65
2021/03/27 07:34:13;;;;;;;5.67;0.60;;;;;;;11.63;46.51;98265.75;8334995;28;20192;-65
2021/03/27 07:38:32;;;;;;;0.60;0.43;;;;;;;12.20;45.75;98283.16;8329382;28;20220;-64
2021/03/27 07:42:56;;;;;;;1.90;0.50;;;;;;;13.28;43.49;98302.25;8312829;28;20200;-65
2021/03/27 07:47:17;;;;;;;0.50;0.43;;;;;;;13.41;43.08;98299.91;8321448;28;20219;-65
2021/03/27 07:51:45;;;;;;;3.73;0.50;;;;;;;13.41;41.69;98303.34;8328484;28;20213;-66
2021/03/27 07:56:23;;;;;;;3.10;0.40;;;;;;;12.72;42.20;98322.28;8323569;28;20195;-65
2021/03/27 08:00:52;;;;;;;0.97;0.70;;;;;;;12.31;43.99;98325.03;8302973;28;20189;-64
2021/03/27 08:05:16;;;;;;;0.77;0.60;;;;;;;11.93;44.18;98337.97;8309849;28;20282;-65
2021/03/27 08:09:34;;;;;;;1.13;0.50;;;;;;;12.00;45.53;98354.16;8323449;28;20196;-64
2021/03/27 08:14:03;;;;;;;0.43;0.43;;;;;;;11.69;46.65;98379.63;8333019;28;20263;-64
2021/03/27 08:18:38;;;;;;;2.07;1.50;;;;;;;11.92;44.37;98388.22;8312605;28;20189;-64
2021/03/27 08:23:20;;;;;;;2.07;1.50;;;;;;;11.67;42.56;98371.06;8316597;28;20192;-64
2021/03/27 08:27:50;;;;;;;2.13;1.17;;;;;;;11.98;44.14;98403.53;8223714;28;20749;-64
2021/03/27 08:32:21;;;;;;;10.63;3.90;;;;;;;12.09;40.62;98382.31;8292117;28;20209;-65
2021/03/27 08:37:07;;;;;;;0.90;0.70;;;;;;;13.01;39.60;98405.84;8332317;28;20197;-64
2021/03/27 08:41:26;;;;;;;0.77;0.60;;;;;;;13.99;36.85;98413.22;8322508;28;20209;-64
2021/03/27 08:45:57;;;;;;;3.50;1.10;;;;;;;12.95;36.78;98399.19;8332121;28;20219;-64
2021/03/27 08:50:22;;;;;;;1.47;0.83;;;;;;;14.50;35.51;98413.19;8332376;28;20200;-64
2021/03/27 08:54:48;;;;;;;1.30;0.77;;;;;;;14.67;32.99;98420.97;8326816;28;20211;-64
2021/03/27 08:59:18;;;;;;;1.63;0.70;;;;;;;15.35;32.81;98425.09;8332007;28;20192;-64
2021/03/27 09:04:01;;;;;;;4.00;1.03;;;;;;;15.37;30.56;98425.84;8328848;28;20212;-65
2021/03/27 09:08:23;;;;;;;1.93;0.80;;;;;;;15.69;30.71;98449.25;8275323;28;20517;-65
2021/03/27 09:12:47;;;;;;;1.97;0.93;;;;;;;14.62;29.87;98430.78;8285556;28;20254;-65
2021/03/27 09:17:11;;;;;;;1.50;1.10;;;;;;;14.45;31.48;98444.72;8298225;28;20208;-64
2021/03/27 09:21:29;;;;;;;3.30;0.97;;;;;;;13.96;32.81;98466.28;8314663;28;20196;-64
2021/03/27 09:26:26;;;;;;;1.67;0.80;;;;;;;14.47;34.08;98456.72;8330193;28;20608;-65
2021/03/27 09:30:34;;;;;;;2.37;0.80;;;;;;;14.06;34.76;98477.09;8278958;28;20220;-64
2021/03/27 09:34:51;;;;;;;2.30;0.80;;;;;;;15.94;32.31;98470.44;8330299;28;20257;-65
2021/03/27 09:39:02;;;;;;;2.80;1.03;;;;;;;16.33;31.14;98481.25;8330767;28;20644;-64
2021/03/27 09:43:43;;;;;;;2.03;0.87;;;;;;;16.21;30.12;98480.19;8330839;28;20213;-64
2021/03/27 09:47:58;;;;;;;4.30;1.30;;;;;;;17.03;27.87;98477.91;8328262;28;20201;-65
2021/03/27 09:52:26;;;;;;;2.60;0.83;;;;;;;17.51;27.13;98479.16;8317896;28;20185;-65
2021/03/27 09:56:47;;;;;;;2.10;0.90;;;;;;;17.34;27.90;98479.41;8313098;28;20223;-64
2021/03/27 10:01:09;;;;;;;2.23;0.83;;;;;;;17.34;26.96;98477.66;8314932;28;20231;-65
2021/03/27 10:05:32;;;;;;;4.60;1.10;;;;;;;15.67;29.25;98480.69;8316531;28;20520;-66
2021/03/27 10:10:12;;;;;;;5.97;2.60;;;;;;;17.27;27.09;98486.84;8318756;28;20617;-65
2021/03/27 10:14:17;;;;;;;4.70;1.97;;;;;;;17.85;25.37;98508.44;8336301;28;20196;-67
2021/03/27 10:18:23;;;;;;;2.70;1.13;;;;;;;16.65;27.01;98494.16;8336102;28;20510;-65
2021/03/27 10:22:31;;;;;;;4.93;1.30;;;;;;;16.54;26.57;98489.56;8335380;28;20188;-65
2021/03/27 10:26:43;;;;;;;5.17;1.03;;;;;;;15.78;27.95;98501.84;8319711;28;20204;-66
2021/03/27 10:30:55;;;;;;;2.40;0.97;;;;;;;15.81;27.76;98506.03;8329306;28;20749;-66
2021/03/27 10:34:59;;;;;;;2.17;1.10;;;;;;;16.05;27.67;98492.47;8321640;28;20635;-64
2021/03/27 10:39:30;;;;;;;2.13;1.07;;;;;;;16.59;29.93;98508.44;8336250;28;20607;-64
2021/03/27 10:43:41;;;;;;;3.30;1.20;;;;;;;17.06;26.37;98512.56;8335851;28;20216;-64
2021/03/27 10:48:08;;;;;;;4.50;1.40;;;;;;;16.97;26.77;98513.13;8335813;28;20204;-65
2021/03/27 10:52:33;;;;;;;2.30;1.30;;;;;;;16.61;26.57;98517.03;8334695;28;20204;-64
2021/03/27 10:56:45;;;;;;;4.47;1.30;;;;;;;15.93;27.92;98515.75;8335518;28;20196;-65
2021/03/27 11:00:56;;;;;;;4.20;1.13;;;;;;;17.10;27.56;98521.06;8335634;28;20189;-65
2021/03/27 11:05:30;;;;;;;3.57;1.30;;;;;;;16.88;26.18;98517.16;8335242;28;20212;-64
2021/03/27 11:09:51;;;;;;;3.83;1.50;;;;;;;16.92;26.25;98513.41;8334840;28;20629;-64
2021/03/27 11:14:35;;;;;;;2.73;1.20;;;;;;;15.97;27.56;98526.88;8311408;28;20212;-65
2021/03/27 11:19:12;;;;;;;4.30;1.10;;;;;;;15.76;28.33;98515.88;8334786;28;20537;-65
2021/03/27 11:23:46;;;;;;;2.47;1.40;;;;;;;15.17;29.16;98534.75;8271280;28;20216;-65
2021/03/27 11:28:07;;;;;;;4.17;1.30;;;;;;;14.54;30.34;98532.81;8302468;28;20233;-64
2021/03/27 11:32:14;;;;;;;2.07;1.10;;;;;;;14.88;30.85;98530.25;8302123;28;20284;-65
2021/03/27 11:36:21;;;;;;;2.57;1.00;;;;;;;14.92;31.00;98530.00;8301454;28;20189;-64
2021/03/27 11:40:29;;;;;;;5.37;1.20;;;;;;;14.51;30.23;98537.34;8300523;28;20225;-64
2021/03/27 11:44:42;;;;;;;1.77;1.00;;;;;;;14.32;30.60;98540.03;8300103;28;20236;-65
2021/03/27 11:48:50;;;;;;;4.90;1.60;;;;;;;14.20;31.44;98542.34;8306452;28;20518;-65
2021/03/27 11:53:04;;;;;;;4.90;1.40;;;;;;;15.44;30.30;98542.00;8311288;28;20200;-64
2021/03/27 11:57:25;;;;;;;3.10;1.27;;;;;;;15.15;30.64;98547.03;8300130;28;20189;-65
2021/03/27 12:01:31;;;;;;;3.67;1.67;;;;;;;16.44;28.73;98544.19;8315308;28;20231;-64
2021/03/27 12:05:37;;;;;;;5.30;1.60;;;;;;;16.37;28.22;98555.91;8317983;28;20205;-64
2021/03/27 12:09:45;;;;;;;8.23;2.03;;;;;;;15.07;28.52;98557.03;8309073;28;20193;-65
2021/03/27 12:13:57;;;;;;;3.93;1.40;;;;;;;15.61;28.29;98546.28;8330569;28;20197;-65
2021/03/27 12:18:05;;;;;;;3.47;1.23;;;;;;;15.10;29.29;98551.66;8332929;28;20201;-65
2021/03/27 12:22:12;;;;;;;2.37;1.10;;;;;;;14.86;28.59;98562.44;8332304;28;20287;-67
2021/03/27 12:26:21;;;;;;;4.50;1.60;;;;;;;15.51;27.65;98559.00;8331680;28;20209;-66
2021/03/27 12:30:34;;;;;;;2.50;1.10;;;;;;;15.01;36.45;98552.16;8331728;28;20244;-65
2021/03/27 12:34:38;;;;;;;6.77;1.33;;;;;;;16.10;30.12;98548.75;8329647;28;20196;-67
2021/03/27 12:39:20;;;;;;;5.60;1.50;;;;;;;16.10;32.11;98550.53;8331131;28;20224;-64
2021/03/27 12:43:24;;;;;;;8.40;1.90;;;;;;;16.67;28.69;98547.19;8279708;28;20208;-65
2021/03/27 12:47:54;;;;;;;6.47;1.60;;;;;;;16.90;27.82;98541.44;8331715;28;20212;-66
2021/03/27 12:52:13;;;;;;;8.60;1.40;;;;;;;16.45;27.18;98553.72;8332066;28;20196;-65
2021/03/27 12:56:22;;;;;;;2.83;1.40;;;;;;;15.69;25.48;98553.69;8331340;28;20581;-66
2021/03/27 13:01:10;;;;;;;6.97;1.17;;;;;;;15.78;26.93;98555.81;8331758;28;20208;-66
2021/03/27 13:05:18;;;;;;;2.47;1.27;;;;;;;16.11;27.28;98560.91;8299005;28;20576;-66
2021/03/27 13:09:52;;;;;;;3.80;1.30;;;;;;;15.99;27.41;98561.59;8298539;28;20186;-66
2021/03/27 13:14:27;;;;;;;6.83;1.33;;;;;;;15.76;27.87;98549.84;8294326;28;20216;-66
2021/03/27 13:18:52;;;;;;;5.17;1.40;;;;;;;16.91;26.30;98568.47;8309372;28;20613;-66
2021/03/27 13:22:59;;;;;;;2.47;1.07;;;;;;;17.35;25.74;98549.16;8311744;28;20222;-66
2021/03/27 13:27:06;;;;;;;2.07;1.00;;;;;;;16.28;25.14;98552.09;8328214;28;20208;-66
2021/03/27 13:31:11;;;;;;;3.30;1.00;;;;;;;15.85;25.37;98557.16;8314258;28;20200;-66
2021/03/27 13:35:16;;;;;;;4.97;1.40;;;;;;;15.44;25.92;98553.28;8330693;28;20636;-65
2021/03/27 13:39:28;;;;;;;2.70;1.10;;;;;;;15.16;26.81;98555.72;8333573;28;20220;-65
2021/03/27 13:43:35;;;;;;;5.53;1.40;;;;;;;14.51;27.35;98569.47;8333009;28;20185;-66
2021/03/27 13:47:43;;;;;;;3.00;1.60;;;;;;;14.26;27.33;98575.06;8324127;28;20210;-66
2021/03/27 13:51:51;;;;;;;4.77;1.53;;;;;;;13.65;27.74;98581.47;8336574;28;20200;-70
2021/03/27 13:56:00;;;;;;;5.30;1.43;;;;;;;13.77;28.95;98593.91;8327200;28;20197;-70
2021/03/27 14:00:14;;;;;;;3.73;1.30;;;;;;;13.61;28.44;98578.19;8324114;28;20205;-70
2021/03/27 14:04:19;;;;;;;4.57;1.50;;;;;;;14.35;28.41;98595.44;8336797;28;20204;-70
2021/03/27 14:08:34;;;;;;;6.67;1.30;;;;;;;14.05;28.94;98644.66;8336668;28;20526;-70
2021/03/27 14:12:40;;;;;;;3.27;1.30;;;;;;;13.63;30.13;98618.00;8334091;28;20698;-70
2021/03/27 14:16:47;;;;;;;5.20;1.53;;;;;;;13.57;30.69;98622.63;8308915;28;20212;-70
2021/03/27 14:20:52;;;;;;;3.50;1.40;;;;;;;13.61;31.40;98640.66;8303089;28;20285;-70
2021/03/27 14:25:24;;;;;;;2.73;1.30;;;;;;;14.27;30.24;98642.72;8302897;28;20324;-70
2021/03/27 14:29:46;;;;;;;3.40;1.30;;;;;;;14.63;29.11;98647.06;8303418;28;20224;-70
2021/03/27 14:34:21;;;;;;;3.53;1.50;;;;;;;14.03;30.09;98629.13;8302892;28;20511;-70
2021/03/27 14:38:58;;;;;;;3.93;1.10;;;;;;;14.11;28.71;98628.75;8325821;28;20225;-70
2021/03/27 14:43:18;;;;;;;2.13;1.20;;;;;;;13.92;28.88;98635.75;8312512;28;20235;-70
2021/03/27 14:47:31;;;;;;;3.43;1.10;;;;;;;14.57;29.30;98641.31;8335334;28;20267;-70
2021/03/27 14:51:39;;;;;;;2.67;1.20;;;;;;;15.07;29.04;98639.66;8334788;28;20601;-70
2021/03/27 14:55:46;;;;;;;3.67;1.30;;;;;;;15.07;29.07;98644.88;8333986;28;20200;-70
2021/03/27 14:59:59;;;;;;;3.90;1.40;;;;;;;15.15;28.75;98635.72;8334545;28;20224;-70
2021/03/27 15:04:12;;;;;;;6.70;1.50;;;;;;;14.68;29.84;98638.16;8333304;28;20230;-70
2021/03/27 15:08:25;;;;;;;5.73;2.20;;;;;;;14.70;28.98;98647.63;8334066;28;20201;-70
2021/03/27 15:12:32;;;;;;;7.13;1.80;;;;;;;14.30;30.00;98633.06;8332526;28;20696;-70
2021/03/27 15:16:38;;;;;;;6.53;1.50;;;;;;;14.52;29.88;98635.47;8333686;28;20209;-70
2021/03/27 15:20:43;;;;;;;3.27;1.30;;;;;;;15.03;29.29;98647.63;8333382;28;20592;-70
2021/03/27 15:29:21;;;;;;;4.73;1.50;;;;;;;13.98;31.03;98631.09;8330399;28;20236;-70
2021/03/27 15:33:27;;;;;;;4.87;1.23;;;;;;;14.21;30.85;98632.59;8333329;28;20197;-70
2021/03/27 15:37:33;;;;;;;3.27;1.40;;;;;;;14.01;30.61;98637.91;8332365;28;20220;-70
2021/03/27 15:41:42;;;;;;;5.40;1.40;;;;;;;13.48;31.56;98642.97;8332505;28;20523;-70
2021/03/27 15:45:53;;;;;;;4.33;1.73;;;;;;;13.56;31.20;98658.22;8324715;28;20651;-70
2021/03/27 15:49:59;;;;;;;4.23;1.87;;;;;;;13.77;31.46;98650.34;8332280;28;20211;-70
2021/03/27 15:54:34;;;;;;;4.90;2.10;;;;;;;13.42;32.31;98653.66;8332250;28;20199;-70
2021/03/27 15:58:39;;;;;;;5.90;1.60;;;;;;;12.97;32.54;98649.53;8321248;28;20204;-70
2021/03/27 16:02:44;;;;;;;4.40;1.53;;;;;;;12.96;32.86;98662.56;8330749;28;20708;-69
2021/03/27 16:06:50;;;;;;;6.30;2.47;;;;;;;12.85;33.43;98666.50;8332948;28;20216;-70
2021/03/27 16:11:14;;;;;;;9.53;2.47;;;;;;;12.96;33.81;98660.81;8332119;28;20503;-70
2021/03/27 16:15:22;;;;;;;3.97;2.00;;;;;;;12.99;33.62;98671.09;8332332;28;20188;-70
2021/03/27 16:19:45;;;;;;;4.30;2.20;;;;;;;12.69;33.69;98692.25;8332072;28;20485;-70
2021/03/27 16:24:00;;;;;;;4.73;1.77;;;;;;;12.18;35.78;98701.25;8307739;28;20216;-70
2021/03/27 16:28:16;;;;;;;7.33;1.60;;;;;;;12.18;38.60;98719.41;8313577;28;20960;-70
2021/03/27 16:32:26;;;;;;;4.20;1.60;;;;;;;11.94;40.54;98739.41;8307870;28;20201;-70
2021/03/27 16:36:36;;;;;;;8.40;2.30;;;;;;;11.82;38.78;98773.53;8313392;28;20192;-69
2021/03/27 16:40:46;;;;;;;7.97;1.73;;;;;;;11.21;43.52;98790.34;8312085;28;20691;-65
2021/03/27 16:44:58;;;;;;;6.27;3.30;;;;;;;11.23;46.84;98803.28;8312320;28;20205;-65
2021/03/27 16:49:15;;;;;;;3.17;2.10;;;;;;;10.82;48.42;98805.50;8309997;28;20185;-65
2021/03/27 16:53:29;;;;;;;3.03;1.60;;;;;;;11.23;46.94;98801.53;8312353;28;20185;-66
2021/03/27 16:57:54;;;;;;;2.57;1.13;;;;;;;11.27;46.30;98800.53;8312113;28;20196;-65
2021/03/27 17:02:08;;;;;;;3.50;1.70;;;;;;;11.28;46.46;98804.81;8312908;28;20181;-64
2021/03/27 17:06:16;;;;;;;2.60;1.80;;;;;;;11.35;46.14;98813.25;8307091;28;20221;-65
2021/03/27 17:10:38;;;;;;;3.10;1.97;;;;;;;11.45;45.50;98816.38;8311328;28;20200;-64
2021/03/27 17:14:52;;;;;;;6.30;3.87;;;;;;;11.44;46.07;98817.25;8314622;28;20236;-66
2021/03/27 17:19:07;;;;;;;3.10;1.67;;;;;;;11.31;45.77;98816.84;8313242;28;20193;-65
2021/03/27 17:23:32;;;;;;;5.00;2.57;;;;;;;11.18;46.36;98813.81;8310513;28;20194;-66
2021/03/27 17:27:37;;;;;;;4.17;2.57;;;;;;;11.07;46.64;98823.69;8312498;28;20228;-64
2021/03/27 17:31:51;;;;;;;5.57;2.50;;;;;;;11.26;46.42;98829.09;8311287;28;20181;-65
2021/03/27 17:35:56;;;;;;;4.23;1.90;;;;;;;11.10;46.70;98844.28;8309438;28;20201;-67
2021/03/27 17:40:05;;;;;;;4.07;2.07;;;;;;;10.86;47.86;98844.19;8313262;28;20570;-64
2021/03/27 17:44:15;;;;;;;4.17;2.10;;;;;;;10.89;47.11;98859.66;8310274;28;20186;-65
2021/03/27 17:48:25;;;;;;;6.87;2.20;;;;;;;11.15;47.17;98848.44;8315578;28;20208;-66
2021/03/27 17:52:35;;;;;;;3.20;1.60;;;;;;;10.85;46.91;98849.41;8311411;28;20189;-65
2021/03/27 17:56:39;;;;;;;5.00;2.13;;;;;;;10.78;47.27;98855.72;8310837;28;20194;-65
2021/03/27 18:00:45;;;;;;;5.23;1.87;;;;;;;10.73;46.91;98855.84;8310960;28;20236;-64
2021/03/27 18:04:53;;;;;;;12.03;4.87;;;;;;;10.94;46.45;98869.88;8329002;28;20223;-64
2021/03/27 18:09:03;;;;;;;6.57;3.30;;;;;;;10.98;45.99;98873.22;8329521;28;20208;-64
2021/03/27 18:13:12;;;;;;;8.27;4.33;;;;;;;10.99;45.83;98870.59;8328809;28;20295;-63
2021/03/27 18:17:21;;;;;;;9.37;5.77;;;;;;;11.07;45.42;98878.94;8328913;28;20193;-64
2021/03/27 18:21:38;;;;;;;9.70;7.17;;;;;;;11.09;45.01;98884.09;8325666;28;20217;-65
2021/03/27 18:25:46;;;;;;;9.47;6.27;;;;;;;11.15;45.09;98894.25;8310256;28;20208;-65
2021/03/27 18:29:51;;;;;;;6.03;3.97;;;;;;;11.17;44.51;98904.59;8315929;28;20221;-64
2021/03/27 18:34:01;;;;;;;9.97;6.83;;;;;;;11.05;44.86;98906.66;8316120;28;20542;-65
2021/03/27 18:38:28;;;;;;;26.40;20.13;;;;;;;11.08;45.03;98900.53;8317930;28;20235;-65
2021/03/27 18:42:49;;;;;;;11.37;8.67;;;;;;;11.12;44.63;98907.34;8316248;28;20192;-65
2021/03/27 18:46:54;;;;;;;6.83;3.90;;;;;;;11.07;45.09;98912.66;8311085;28;20210;-64
2021/03/27 18:51:08;;;;;;;5.97;3.93;;;;;;;11.08;44.79;98924.72;8303910;28;20241;-64
2021/03/27 18:55:19;;;;;;;4.37;2.23;;;;;;;11.13;44.98;98929.75;8316770;28;20628;-65
2021/03/27 18:59:26;;;;;;;5.97;3.70;;;;;;;11.12;45.07;98934.09;8328826;28;20514;-65
2021/03/27 19:03:29;;;;;;;3.87;2.33;;;;;;;11.12;44.99;98941.03;8333627;28;20200;-64
2021/03/27 19:07:36;;;;;;;4.27;2.43;;;;;;;11.13;45.45;98961.72;8333276;28;20232;-65
2021/03/27 19:11:40;;;;;;;5.97;2.45;;;;;;;11.48;45.66;98951.13;8329287;28;20434;-67
2021/03/27 19:15:44;;;;;;;4.77;2.63;;;;;;;11.13;46.65;98955.69;8322815;28;20223;-66
2021/03/27 19:19:51;;;;;;;6.23;3.10;;;;;;;10.98;47.56;98959.59;8319564;28;20702;-65
2021/03/27 19:23:59;;;;;;;4.93;2.80;;;;;;;10.96;47.62;98963.97;8324810;28;20636;-64
2021/03/27 19:28:08;;;;;;;5.83;3.13;;;;;;;11.01;47.68;98969.88;8323755;28;20239;-64
2021/03/27 19:32:20;;;;;;;8.13;3.47;;;;;;;11.13;56.06;98963.47;8328175;28;20192;-65
2021/03/27 19:36:26;;;;;;;15.23;3.17;;;;;;;12.99;52.52;98977.91;8327193;28;20332;-64
2021/03/27 19:40:30;;;;;;;11.47;3.13;;;;;;;13.23;46.35;98978.72;8320009;28;20270;-73
2021/03/27 19:44:49;;;;;;;9.60;4.27;;;;;;;13.48;44.90;98967.38;8297806;28;20209;-67
2021/03/27 19:48:55;;;;;;;7.40;3.43;;;;;;;12.30;44.34;98976.06;8300080;28;20535;-70
2021/03/27 19:53:02;;;;;;;8.20;3.70;;;;;;;11.88;45.15;98981.81;8299792;28;20197;-70
2021/03/27 19:57:08;;;;;;;7.63;4.00;;;;;;;11.59;46.71;98993.13;8299681;28;20196;-70
2021/03/27 20:01:18;;;;;;;6.63;3.77;;;;;;;11.47;46.89;98996.97;8312533;28;20209;-70